createdAt,value
2016-10-17T00:00:51.783Z,0
2016-10-17T00:01:51.698Z,0
2016-10-17T00:02:51.835Z,0
2016-10-17T00:03:51.707Z,0
2016-10-17T00:04:51.842Z,0
2016-10-17T00:05:51.850Z,0
2016-10-17T00:06:51.860Z,0
2016-10-17T00:07:51.891Z,0
2016-10-17T00:08:51.899Z,0
2016-10-17T00:09:51.898Z,0
2016-10-17T00:10:51.907Z,0
2016-10-17T00:11:51.915Z,0
2016-10-17T00:12:51.924Z,0
2016-10-17T00:13:51.938Z,0
2016-10-17T00:14:51.971Z,0
2016-10-17T00:15:51.980Z,0
2016-10-17T00:16:51.998Z,0
2016-10-17T00:17:51.998Z,0
2016-10-17T00:18:51.996Z,0
2016-10-17T00:19:52.013Z,0
2016-10-17T00:20:52.349Z,0
2016-10-17T00:21:52.063Z,0
2016-10-17T00:22:52.066Z,0
2016-10-17T00:23:52.089Z,0
2016-10-17T00:24:52.103Z,0
2016-10-17T00:25:52.147Z,0
2016-10-17T00:26:52.144Z,0
2016-10-17T00:27:52.172Z,0
2016-10-17T00:28:52.178Z,0
2016-10-17T00:29:52.196Z,0
2016-10-17T00:30:52.213Z,0
2016-10-17T00:31:52.237Z,0
2016-10-17T00:32:52.256Z,0
2016-10-17T00:33:52.282Z,0
2016-10-17T00:34:52.303Z,0
2016-10-17T00:35:52.318Z,0
2016-10-17T00:36:52.335Z,0
2016-10-17T00:37:52.351Z,0
2016-10-17T00:38:52.371Z,0
2016-10-17T00:39:52.403Z,0
2016-10-17T00:40:52.415Z,0
2016-10-17T00:41:52.441Z,0
2016-10-17T00:42:52.446Z,0
2016-10-17T00:43:52.478Z,0
2016-10-17T00:44:52.491Z,0
2016-10-17T00:45:52.504Z,0
2016-10-17T00:46:52.521Z,0
2016-10-17T00:47:52.552Z,0
2016-10-17T00:48:52.561Z,0
2016-10-17T00:49:52.594Z,0
2016-10-17T00:50:52.606Z,0
2016-10-17T00:51:52.627Z,0
2016-10-17T00:52:52.641Z,0
2016-10-17T00:53:52.649Z,0
2016-10-17T00:54:52.674Z,0
2016-10-17T00:55:52.694Z,0
2016-10-17T00:56:52.714Z,0
2016-10-17T00:57:52.729Z,0
2016-10-17T00:58:52.762Z,0
2016-10-17T00:59:52.769Z,0
2016-10-17T01:00:52.792Z,0
2016-10-17T01:01:52.810Z,0
2016-10-17T01:02:52.825Z,0
2016-10-17T01:03:52.847Z,0
2016-10-17T01:04:52.891Z,0
2016-10-17T01:05:52.940Z,0
2016-10-17T01:06:52.949Z,0
2016-10-17T01:07:52.956Z,0
2016-10-17T01:08:52.956Z,0
2016-10-17T01:09:52.963Z,0
2016-10-17T01:10:52.977Z,0
2016-10-17T01:11:53.017Z,0
2016-10-17T01:12:53.031Z,0
2016-10-17T01:13:53.034Z,0
2016-10-17T01:14:53.057Z,0
2016-10-17T01:15:53.078Z,0
2016-10-17T01:16:53.094Z,0
2016-10-17T01:17:53.113Z,0
2016-10-17T01:18:53.141Z,0
2016-10-17T01:19:53.159Z,0
2016-10-17T01:20:53.176Z,0
2016-10-17T01:21:53.191Z,0
2016-10-17T01:22:53.202Z,0
2016-10-17T01:23:53.222Z,0
2016-10-17T01:24:53.247Z,0
2016-10-17T01:25:53.260Z,0
2016-10-17T01:26:53.284Z,0
2016-10-17T01:27:53.304Z,0
2016-10-17T01:28:53.322Z,0
2016-10-17T01:29:53.349Z,0
2016-10-17T01:30:53.370Z,0
2016-10-17T01:31:53.386Z,0
2016-10-17T01:32:53.702Z,0
2016-10-17T01:33:53.420Z,0
2016-10-17T01:34:53.439Z,0
2016-10-17T01:35:53.454Z,0
2016-10-17T01:36:53.479Z,0
2016-10-17T01:37:53.510Z,0
2016-10-17T01:38:53.509Z,0
2016-10-17T01:39:53.535Z,0
2016-10-17T01:40:53.564Z,0
2016-10-17T01:41:53.570Z,0
2016-10-17T01:42:53.587Z,0
2016-10-17T01:43:53.606Z,0
2016-10-17T01:44:53.620Z,0
2016-10-17T01:45:53.647Z,0
2016-10-17T01:46:53.659Z,0
2016-10-17T01:47:53.682Z,0
2016-10-17T01:48:53.700Z,0
2016-10-17T01:49:53.717Z,0
2016-10-17T01:50:53.739Z,0
2016-10-17T01:51:53.755Z,0
2016-10-17T01:52:53.773Z,0
2016-10-17T01:53:53.793Z,0
2016-10-17T01:54:53.813Z,0
2016-10-17T01:55:53.839Z,0
2016-10-17T01:56:53.889Z,0
2016-10-17T01:57:53.898Z,0
2016-10-17T01:58:53.907Z,0
2016-10-17T01:59:53.912Z,0
2016-10-17T02:00:53.929Z,0
2016-10-17T02:01:53.955Z,0
2016-10-17T02:02:54.033Z,0
2016-10-17T02:03:54.011Z,0
2016-10-17T02:04:54.002Z,0
2016-10-17T02:05:54.032Z,0
2016-10-17T02:06:54.036Z,0
2016-10-17T02:07:54.057Z,0
2016-10-17T02:08:54.071Z,0
2016-10-17T02:09:54.099Z,0
2016-10-17T02:10:54.109Z,0
2016-10-17T02:11:54.131Z,0
2016-10-17T02:12:54.160Z,0
2016-10-17T02:13:54.175Z,0
2016-10-17T02:14:54.197Z,0
2016-10-17T02:15:54.205Z,0
2016-10-17T02:16:54.223Z,0
2016-10-17T02:17:54.255Z,0
2016-10-17T02:18:54.258Z,0
2016-10-17T02:19:54.281Z,0
2016-10-17T02:20:54.310Z,0
2016-10-17T02:21:54.319Z,0
2016-10-17T02:22:54.341Z,0
2016-10-17T02:23:54.367Z,0
2016-10-17T02:24:54.380Z,0
2016-10-17T02:25:54.389Z,0
2016-10-17T02:26:54.515Z,0
2016-10-17T02:27:54.529Z,0
2016-10-17T02:28:54.533Z,0
2016-10-17T02:29:54.531Z,0
2016-10-17T02:30:54.539Z,0
2016-10-17T02:31:54.551Z,0
2016-10-17T02:32:54.558Z,0
2016-10-17T02:33:54.567Z,0
2016-10-17T02:34:54.566Z,0
2016-10-17T02:35:54.581Z,0
2016-10-17T02:36:54.721Z,0
2016-10-17T02:37:54.730Z,0
2016-10-17T02:38:54.765Z,0
2016-10-17T02:39:54.782Z,0
2016-10-17T02:40:54.810Z,0
2016-10-17T02:41:54.795Z,0
2016-10-17T02:42:54.917Z,0
2016-10-17T02:43:54.936Z,0
2016-10-17T02:44:54.754Z,0
2016-10-17T02:45:54.874Z,0
2016-10-17T02:46:54.851Z,0
2016-10-17T02:47:54.819Z,0
2016-10-17T02:48:54.822Z,0
2016-10-17T02:49:54.853Z,0
2016-10-17T02:50:54.936Z,0
2016-10-17T02:51:54.893Z,0
2016-10-17T02:52:54.907Z,0
2016-10-17T02:53:54.927Z,0
2016-10-17T02:54:54.939Z,0
2016-10-17T02:55:54.961Z,0
2016-10-17T02:56:55.001Z,0
2016-10-17T02:57:55.042Z,0
2016-10-17T02:58:55.141Z,0
2016-10-17T02:59:55.705Z,0
2016-10-17T03:00:55.152Z,0
2016-10-17T03:01:55.136Z,0
2016-10-17T03:02:55.142Z,0
2016-10-17T03:03:55.771Z,0
2016-10-17T03:04:55.276Z,0
2016-10-17T03:05:55.311Z,0
2016-10-17T03:06:55.348Z,0
2016-10-17T03:07:55.244Z,0
2016-10-17T03:08:55.212Z,0
2016-10-17T03:09:55.221Z,0
2016-10-17T03:10:55.245Z,0
2016-10-17T03:11:55.270Z,0
2016-10-17T03:12:55.301Z,0
2016-10-17T03:13:55.300Z,0
2016-10-17T03:14:55.439Z,0
2016-10-17T03:15:55.479Z,0
2016-10-17T03:16:55.350Z,0
2016-10-17T03:17:55.488Z,0
2016-10-17T03:18:55.489Z,0
2016-10-17T03:19:55.496Z,0
2016-10-17T03:20:55.438Z,0
2016-10-17T03:21:55.514Z,0
2016-10-17T03:22:55.523Z,0
2016-10-17T03:23:55.609Z,0
2016-10-17T03:24:55.617Z,0
2016-10-17T03:25:55.539Z,0
2016-10-17T03:26:55.609Z,0
2016-10-17T03:27:55.618Z,0
2016-10-17T03:28:55.590Z,0
2016-10-17T03:29:55.628Z,0
2016-10-17T03:30:55.635Z,0
2016-10-17T03:31:55.950Z,0
2016-10-17T03:32:55.967Z,0
2016-10-17T03:33:56.003Z,0
2016-10-17T03:34:55.760Z,0
2016-10-17T03:35:55.785Z,0
2016-10-17T03:36:55.821Z,0
2016-10-17T03:37:56.069Z,0
2016-10-17T03:38:55.824Z,0
2016-10-17T03:39:55.881Z,0
2016-10-17T03:40:55.814Z,0
2016-10-17T03:41:55.852Z,0
2016-10-17T03:42:55.845Z,0
2016-10-17T03:43:55.884Z,0
2016-10-17T03:44:55.878Z,0
2016-10-17T03:45:55.911Z,0
2016-10-17T03:46:55.915Z,0
2016-10-17T03:47:55.936Z,0
2016-10-17T03:48:55.961Z,0
2016-10-17T03:49:55.972Z,0
2016-10-17T03:50:56.007Z,0
2016-10-17T03:51:56.015Z,0
2016-10-17T03:52:56.342Z,0
2016-10-17T03:53:56.055Z,0
2016-10-17T03:54:56.073Z,0
2016-10-17T03:55:56.091Z,0
2016-10-17T03:56:56.105Z,0
2016-10-17T03:57:56.432Z,0
2016-10-17T03:58:56.462Z,0
2016-10-17T03:59:56.163Z,0
2016-10-17T04:00:56.200Z,0
2016-10-17T04:01:56.201Z,0
2016-10-17T04:02:56.359Z,0
2016-10-17T04:03:56.611Z,0
2016-10-17T04:04:56.274Z,0
2016-10-17T04:05:56.396Z,0
2016-10-17T04:06:56.295Z,0
2016-10-17T04:07:56.325Z,0
2016-10-17T04:08:56.641Z,0
2016-10-17T04:09:56.346Z,0
2016-10-17T04:10:56.376Z,0
2016-10-17T04:11:56.384Z,0
2016-10-17T04:12:56.409Z,0
2016-10-17T04:13:56.733Z,0
2016-10-17T04:14:56.439Z,0
2016-10-17T04:15:57.091Z,0
2016-10-17T04:16:56.490Z,0
2016-10-17T04:17:56.507Z,0
2016-10-17T04:18:56.513Z,0
2016-10-17T04:19:56.533Z,0
2016-10-17T04:20:56.877Z,0
2016-10-17T04:21:56.884Z,0
2016-10-17T04:22:56.620Z,0
2016-10-17T04:23:56.627Z,0
2016-10-17T04:24:56.625Z,0
2016-10-17T04:25:56.649Z,0
2016-10-17T04:26:56.670Z,0
2016-10-17T04:27:56.687Z,0
2016-10-17T04:28:56.705Z,0
2016-10-17T04:29:56.714Z,0
2016-10-17T04:30:56.737Z,0
2016-10-17T04:31:56.817Z,0
2016-10-17T04:32:56.786Z,0
2016-10-17T04:33:56.797Z,0
2016-10-17T04:34:56.811Z,0
2016-10-17T04:35:56.837Z,0
2016-10-17T04:36:56.847Z,0
2016-10-17T04:37:56.869Z,0
2016-10-17T04:38:56.886Z,0
2016-10-17T04:39:56.904Z,0
2016-10-17T04:40:56.927Z,0
2016-10-17T04:41:56.992Z,0
2016-10-17T04:42:57.314Z,0
2016-10-17T04:43:56.977Z,0
2016-10-17T04:44:57.341Z,0
2016-10-17T04:45:57.021Z,0
2016-10-17T04:46:57.046Z,0
2016-10-17T04:47:57.055Z,0
2016-10-17T04:48:57.075Z,0
2016-10-17T04:49:57.092Z,0
2016-10-17T04:50:57.120Z,0
2016-10-17T04:51:57.155Z,0
2016-10-17T04:52:57.145Z,0
2016-10-17T04:53:57.159Z,0
2016-10-17T04:54:57.198Z,0
2016-10-17T04:55:57.209Z,0
2016-10-17T04:56:57.226Z,0
2016-10-17T04:57:57.558Z,0
2016-10-17T04:58:57.259Z,0
2016-10-17T04:59:57.591Z,0
2016-10-17T05:00:57.299Z,0
2016-10-17T05:01:57.623Z,0
2016-10-17T05:02:57.331Z,0
2016-10-17T05:03:57.354Z,0
2016-10-17T05:04:57.375Z,0
2016-10-17T05:05:57.390Z,0
2016-10-17T05:06:57.404Z,0
2016-10-17T05:07:57.420Z,0
2016-10-17T05:08:57.465Z,0
2016-10-17T05:09:57.454Z,0
2016-10-17T05:10:57.475Z,0
2016-10-17T05:11:57.514Z,0
2016-10-17T05:12:57.526Z,0
2016-10-17T05:13:57.618Z,0
2016-10-17T05:14:57.547Z,0
2016-10-17T05:15:57.570Z,0
2016-10-17T05:16:57.777Z,0
2016-10-17T05:17:57.944Z,0
2016-10-17T05:18:57.743Z,0
2016-10-17T05:19:57.639Z,0
2016-10-17T05:20:57.786Z,0
2016-10-17T05:21:57.689Z,0
2016-10-17T05:22:57.699Z,0
2016-10-17T05:23:57.721Z,0
2016-10-17T05:24:57.739Z,0
2016-10-17T05:25:57.756Z,0
2016-10-17T05:26:57.771Z,0
2016-10-17T05:27:57.810Z,0
2016-10-17T05:28:57.806Z,0
2016-10-17T05:29:57.836Z,0
2016-10-17T05:30:57.848Z,0
2016-10-17T05:31:57.864Z,0
2016-10-17T05:32:57.885Z,0
2016-10-17T05:33:57.916Z,0
2016-10-17T05:34:57.924Z,0
2016-10-17T05:35:57.960Z,0
2016-10-17T05:36:57.965Z,0
2016-10-17T05:37:57.982Z,0
2016-10-17T05:38:58.004Z,0
2016-10-17T05:39:58.014Z,0
2016-10-17T05:40:58.039Z,0
2016-10-17T05:41:58.198Z,0
2016-10-17T05:42:58.082Z,0
2016-10-17T05:43:58.110Z,0
2016-10-17T05:44:58.128Z,0
2016-10-17T05:45:58.131Z,0
2016-10-17T05:46:58.276Z,0
2016-10-17T05:47:58.160Z,0
2016-10-17T05:48:58.180Z,0
2016-10-17T05:49:58.194Z,0
2016-10-17T05:50:58.223Z,0
2016-10-17T05:51:58.242Z,0
2016-10-17T05:52:58.255Z,0
2016-10-17T05:53:58.278Z,0
2016-10-17T05:54:58.289Z,0
2016-10-17T05:55:58.319Z,0
2016-10-17T05:56:58.321Z,0
2016-10-17T05:57:58.343Z,0
2016-10-17T05:58:58.367Z,0
2016-10-17T05:59:58.381Z,0
2016-10-17T06:00:58.418Z,0
2016-10-17T06:01:58.414Z,0
2016-10-17T06:02:58.572Z,0
2016-10-17T06:03:58.455Z,0
2016-10-17T06:04:58.493Z,0
2016-10-17T06:05:58.490Z,0
2016-10-17T06:06:58.515Z,0
2016-10-17T06:07:58.534Z,0
2016-10-17T06:08:58.549Z,0
2016-10-17T06:09:58.569Z,0
2016-10-17T06:10:58.583Z,0
2016-10-17T06:11:58.606Z,0
2016-10-17T06:12:58.638Z,0
2016-10-17T06:13:58.953Z,0
2016-10-17T06:14:58.667Z,0
2016-10-17T06:15:58.674Z,0
2016-10-17T06:16:58.724Z,0
2016-10-17T06:17:58.713Z,0
2016-10-17T06:18:58.735Z,0
2016-10-17T06:19:58.754Z,0
2016-10-17T06:20:58.767Z,0
2016-10-17T06:21:58.789Z,0
2016-10-17T06:22:59.120Z,0
2016-10-17T06:23:58.823Z,0
2016-10-17T06:24:59.026Z,0
2016-10-17T06:25:58.885Z,0
2016-10-17T06:26:58.877Z,0
2016-10-17T06:27:58.900Z,0
2016-10-17T06:28:58.915Z,0
2016-10-17T06:29:58.933Z,0
2016-10-17T06:30:58.969Z,0
2016-10-17T06:31:58.975Z,0
2016-10-17T06:32:58.985Z,5
2016-10-17T06:33:59.004Z,5
2016-10-17T06:34:59.028Z,5
2016-10-17T06:35:59.051Z,5
2016-10-17T06:36:59.064Z,5
2016-10-17T06:37:59.086Z,5
2016-10-17T06:38:59.100Z,5
2016-10-17T06:39:59.118Z,5
2016-10-17T06:40:59.142Z,5
2016-10-17T06:41:59.158Z,5
2016-10-17T06:42:59.174Z,5
2016-10-17T06:43:59.522Z,5
2016-10-17T06:44:59.216Z,5
2016-10-17T06:45:59.227Z,5
2016-10-17T06:46:59.262Z,5
2016-10-17T06:47:59.471Z,5
2016-10-17T06:48:59.473Z,5
2016-10-17T06:49:59.481Z,5
2016-10-17T06:50:59.438Z,5
2016-10-17T06:51:59.499Z,5
2016-10-17T06:52:59.498Z,5
2016-10-17T06:53:59.511Z,5
2016-10-17T06:54:59.516Z,5
2016-10-17T06:55:59.528Z,5
2016-10-17T06:56:59.564Z,5
2016-10-17T06:57:59.571Z,5
2016-10-17T06:58:59.583Z,5
2016-10-17T06:59:59.590Z,5
2016-10-17T07:00:59.600Z,10
2016-10-17T07:01:59.599Z,5
2016-10-17T07:02:59.650Z,10
2016-10-17T07:03:59.652Z,10
2016-10-17T07:04:59.664Z,5
2016-10-17T07:05:59.669Z,10
2016-10-17T07:06:59.692Z,10
2016-10-17T07:07:59.702Z,5
2016-10-17T07:08:59.665Z,10
2016-10-17T07:09:59.708Z,5
2016-10-17T07:10:59.693Z,5
2016-10-17T07:11:59.707Z,5
2016-10-17T07:12:59.725Z,10
2016-10-17T07:13:59.747Z,10
2016-10-17T07:14:59.765Z,5
2016-10-17T07:15:59.779Z,10
2016-10-17T07:16:59.816Z,10
2016-10-17T07:17:59.821Z,10
2016-10-17T07:18:59.838Z,10
2016-10-17T07:19:59.886Z,10
2016-10-17T07:20:59.941Z,10
2016-10-17T07:21:59.891Z,10
2016-10-17T07:22:59.911Z,10
2016-10-17T07:23:59.937Z,10
2016-10-17T07:24:59.947Z,10
2016-10-17T07:25:59.969Z,10
2016-10-17T07:26:59.989Z,10
2016-10-17T07:28:00.004Z,10
2016-10-17T07:29:00.031Z,10
2016-10-17T07:30:00.040Z,10
2016-10-17T07:31:00.096Z,10
2016-10-17T07:32:00.116Z,10
2016-10-17T07:33:00.206Z,10
2016-10-17T07:34:00.220Z,10
2016-10-17T07:35:00.224Z,15
2016-10-17T07:36:00.223Z,15
2016-10-17T07:37:00.235Z,15
2016-10-17T07:38:00.301Z,10
2016-10-17T07:39:00.249Z,15
2016-10-17T07:40:00.424Z,15
2016-10-17T07:41:00.317Z,10
2016-10-17T07:42:00.330Z,10
2016-10-17T07:43:00.334Z,10
2016-10-17T07:44:00.343Z,10
2016-10-17T07:45:00.342Z,10
2016-10-17T07:46:00.351Z,10
2016-10-17T07:47:00.357Z,10
2016-10-17T07:48:00.504Z,10
2016-10-17T07:49:00.407Z,10
2016-10-17T07:50:00.421Z,10
2016-10-17T07:51:00.525Z,10
2016-10-17T07:52:00.502Z,10
2016-10-17T07:53:00.587Z,15
2016-10-17T07:54:00.610Z,10
2016-10-17T07:55:00.623Z,10
2016-10-17T07:56:00.644Z,15
2016-10-17T07:57:00.663Z,15
2016-10-17T07:58:00.691Z,15
2016-10-17T07:59:00.702Z,15
2016-10-17T08:01:00.746Z,15
2016-10-17T08:02:00.948Z,15
2016-10-17T08:03:01.092Z,15
2016-10-17T08:04:00.785Z,15
2016-10-17T08:05:00.819Z,15
2016-10-17T08:06:00.932Z,15
2016-10-17T08:07:00.951Z,15
2016-10-17T08:08:00.982Z,20
2016-10-17T08:09:00.959Z,20
2016-10-17T08:10:00.968Z,20
2016-10-17T08:11:00.812Z,15
2016-10-17T08:12:00.839Z,15
2016-10-17T08:13:00.851Z,15
2016-10-17T08:14:00.889Z,15
2016-10-17T08:15:00.888Z,15
2016-10-17T08:16:00.920Z,15
2016-10-17T08:17:00.932Z,15
2016-10-17T08:18:00.968Z,20
2016-10-17T08:19:00.974Z,20
2016-10-17T08:20:00.988Z,20
2016-10-17T08:21:01.002Z,20
2016-10-17T08:22:01.174Z,20
2016-10-17T08:23:01.038Z,20
2016-10-17T08:24:01.072Z,20
2016-10-17T08:25:01.092Z,20
2016-10-17T08:26:01.113Z,20
2016-10-17T08:27:01.209Z,20
2016-10-17T08:28:01.146Z,20
2016-10-17T08:29:01.163Z,20
2016-10-17T08:30:01.193Z,20
2016-10-17T08:31:01.279Z,20
2016-10-17T08:32:01.234Z,15
2016-10-17T08:33:01.237Z,15
2016-10-17T08:34:01.319Z,15
2016-10-17T08:35:01.304Z,15
2016-10-17T08:36:01.313Z,15
2016-10-17T08:37:01.315Z,15
2016-10-17T08:38:01.452Z,20
2016-10-17T08:39:01.347Z,20
2016-10-17T08:40:01.582Z,20
2016-10-17T08:41:01.386Z,20
2016-10-17T08:42:01.404Z,20
2016-10-17T08:43:01.458Z,20
2016-10-17T08:44:01.448Z,20
2016-10-17T08:45:01.495Z,20
2016-10-17T08:46:01.509Z,20
2016-10-17T08:47:01.505Z,20
2016-10-17T08:48:01.520Z,20
2016-10-17T08:49:01.535Z,20
2016-10-17T08:50:01.591Z,20
2016-10-17T08:51:01.577Z,20
2016-10-17T08:52:01.603Z,20
2016-10-17T08:53:01.729Z,20
2016-10-17T08:54:01.650Z,20
2016-10-17T08:55:01.656Z,20
2016-10-17T08:56:01.680Z,20
2016-10-17T08:57:01.697Z,20
2016-10-17T08:58:01.719Z,20
2016-10-17T08:59:01.833Z,20
2016-10-17T09:00:01.751Z,20
2016-10-17T09:01:01.773Z,20
2016-10-17T09:02:01.794Z,20
2016-10-17T09:03:01.814Z,15
2016-10-17T09:04:01.965Z,15
2016-10-17T09:05:01.918Z,15
2016-10-17T09:06:01.870Z,15
2016-10-17T09:07:01.892Z,20
2016-10-17T09:08:01.912Z,20
2016-10-17T09:09:01.940Z,20
2016-10-17T09:10:02.060Z,20
2016-10-17T09:11:01.967Z,20
2016-10-17T09:12:01.992Z,20
2016-10-17T09:13:02.220Z,20
2016-10-17T09:14:02.140Z,20
2016-10-17T09:15:02.085Z,20
2016-10-17T09:16:02.067Z,20
2016-10-17T09:17:02.398Z,20
2016-10-17T09:18:02.118Z,20
2016-10-17T09:19:02.140Z,20
2016-10-17T09:20:02.155Z,20
2016-10-17T09:21:02.277Z,20
2016-10-17T09:22:02.306Z,20
2016-10-17T09:23:02.219Z,20
2016-10-17T09:24:02.245Z,20
2016-10-17T09:25:02.357Z,20
2016-10-17T09:26:02.385Z,20
2016-10-17T09:27:02.403Z,20
2016-10-17T09:28:02.304Z,20
2016-10-17T09:29:02.444Z,20
2016-10-17T09:30:02.353Z,20
2016-10-17T09:31:02.488Z,20
2016-10-17T09:32:02.402Z,20
2016-10-17T09:33:02.517Z,20
2016-10-17T09:34:02.420Z,25
2016-10-17T09:35:02.443Z,25
2016-10-17T09:36:02.783Z,25
2016-10-17T09:37:02.490Z,25
2016-10-17T09:38:02.600Z,25
2016-10-17T09:39:02.529Z,25
2016-10-17T09:40:02.551Z,25
2016-10-17T09:41:02.573Z,25
2016-10-17T09:42:02.684Z,25
2016-10-17T09:43:02.616Z,25
2016-10-17T09:44:02.622Z,25
2016-10-17T09:45:02.646Z,25
2016-10-17T09:46:02.854Z,25
2016-10-17T09:47:02.692Z,25
2016-10-17T09:48:02.852Z,25
2016-10-17T09:49:02.759Z,25
2016-10-17T09:50:02.744Z,25
2016-10-17T09:51:02.775Z,30
2016-10-17T09:52:03.057Z,30
2016-10-17T09:53:02.807Z,30
2016-10-17T09:54:02.910Z,30
2016-10-17T09:55:02.852Z,30
2016-10-17T09:56:02.881Z,30
2016-10-17T09:57:03.109Z,30
2016-10-17T09:58:02.915Z,30
2016-10-17T09:59:02.931Z,30
2016-10-17T10:00:03.089Z,30
2016-10-17T10:01:03.081Z,30
2016-10-17T10:02:03.106Z,30
2016-10-17T10:03:03.006Z,30
2016-10-17T10:04:03.078Z,30
2016-10-17T10:05:03.050Z,30
2016-10-17T10:06:03.196Z,30
2016-10-17T10:07:03.092Z,30
2016-10-17T10:08:03.120Z,30
2016-10-17T10:09:03.253Z,30
2016-10-17T10:10:03.478Z,30
2016-10-17T10:11:03.283Z,30
2016-10-17T10:12:03.310Z,30
2016-10-17T10:13:03.331Z,30
2016-10-17T10:14:03.240Z,30
2016-10-17T10:15:03.254Z,30
2016-10-17T10:16:03.400Z,30
2016-10-17T10:17:03.626Z,30
2016-10-17T10:18:03.442Z,30
2016-10-17T10:19:03.449Z,30
2016-10-17T10:20:03.395Z,25
2016-10-17T10:21:03.380Z,25
2016-10-17T10:22:03.409Z,25
2016-10-17T10:23:03.529Z,30
2016-10-17T10:24:03.495Z,30
2016-10-17T10:25:03.582Z,30
2016-10-17T10:26:03.509Z,30
2016-10-17T10:27:03.511Z,30
2016-10-17T10:28:03.530Z,30
2016-10-17T10:29:03.549Z,30
2016-10-17T10:30:03.719Z,30
2016-10-17T10:31:03.597Z,30
2016-10-17T10:32:03.632Z,30
2016-10-17T10:33:03.651Z,30
2016-10-17T10:34:03.759Z,30
2016-10-17T10:35:03.681Z,30
2016-10-17T10:36:03.810Z,30
2016-10-17T10:37:03.809Z,30
2016-10-17T10:38:03.735Z,30
2016-10-17T10:39:03.753Z,30
2016-10-17T10:40:03.937Z,30
2016-10-17T10:41:03.809Z,30
2016-10-17T10:42:04.130Z,30
2016-10-17T10:43:03.859Z,30
2016-10-17T10:44:03.976Z,30
2016-10-17T10:45:03.996Z,30
2016-10-17T10:46:04.029Z,30
2016-10-17T10:47:04.043Z,30
2016-10-17T10:48:03.949Z,30
2016-10-17T10:49:03.973Z,30
2016-10-17T10:50:03.993Z,30
2016-10-17T10:51:04.133Z,30
2016-10-17T10:52:04.149Z,30
2016-10-17T10:53:04.069Z,30
2016-10-17T10:54:04.079Z,30
2016-10-17T10:55:04.446Z,30
2016-10-17T10:56:04.125Z,30
2016-10-17T10:57:04.567Z,30
2016-10-17T10:58:04.278Z,30
2016-10-17T10:59:04.293Z,30
2016-10-17T11:00:04.219Z,30
2016-10-17T11:01:04.226Z,30
2016-10-17T11:02:04.419Z,30
2016-10-17T11:03:04.400Z,30
2016-10-17T11:04:04.298Z,30
2016-10-17T11:05:04.394Z,30
2016-10-17T11:06:04.343Z,30
2016-10-17T11:07:04.452Z,30
2016-10-17T11:08:04.378Z,30
2016-10-17T11:09:04.617Z,30
2016-10-17T11:10:04.424Z,30
2016-10-17T11:11:04.447Z,30
2016-10-17T11:12:04.576Z,30
2016-10-17T11:13:04.801Z,30
2016-10-17T11:14:04.695Z,30
2016-10-17T11:15:04.666Z,30
2016-10-17T11:16:04.571Z,30
2016-10-17T11:17:04.691Z,30
2016-10-17T11:18:04.591Z,30
2016-10-17T11:19:04.610Z,30
2016-10-17T11:20:04.757Z,35
2016-10-17T11:21:04.656Z,35
2016-10-17T11:22:04.688Z,35
2016-10-17T11:23:04.876Z,35
2016-10-17T11:24:04.881Z,35
2016-10-17T11:25:04.858Z,35
2016-10-17T11:26:04.768Z,30
2016-10-17T11:27:04.963Z,30
2016-10-17T11:28:04.806Z,30
2016-10-17T11:29:04.834Z,30
2016-10-17T11:30:05.293Z,30
2016-10-17T11:31:04.886Z,30
2016-10-17T11:32:04.908Z,30
2016-10-17T11:33:05.116Z,30
2016-10-17T11:34:04.947Z,30
2016-10-17T11:35:04.970Z,30
2016-10-17T11:36:05.001Z,30
2016-10-17T11:37:05.008Z,30
2016-10-17T11:38:05.044Z,30
2016-10-17T11:39:05.088Z,30
2016-10-17T11:40:05.196Z,30
2016-10-17T11:41:05.210Z,30
2016-10-17T11:42:05.133Z,30
2016-10-17T11:43:05.237Z,30
2016-10-17T11:44:05.296Z,35
2016-10-17T11:45:05.205Z,35
2016-10-17T11:46:05.335Z,35
2016-10-17T11:47:05.341Z,35
2016-10-17T11:48:05.753Z,35
2016-10-17T11:49:05.397Z,35
2016-10-17T11:50:05.311Z,35
2016-10-17T11:51:05.426Z,30
2016-10-17T11:52:05.341Z,30
2016-10-17T11:53:05.367Z,30
2016-10-17T11:54:05.388Z,30
2016-10-17T11:55:05.411Z,30
2016-10-17T11:56:05.424Z,30
2016-10-17T11:57:05.457Z,30
2016-10-17T11:58:05.483Z,30
2016-10-17T11:59:05.605Z,30
2016-10-17T12:00:05.525Z,30
2016-10-17T12:01:05.543Z,30
2016-10-17T12:02:05.569Z,30
2016-10-17T12:03:05.585Z,30
2016-10-17T12:04:05.679Z,30
2016-10-17T12:05:05.625Z,30
2016-10-17T12:06:05.805Z,30
2016-10-17T12:07:05.671Z,30
2016-10-17T12:08:05.736Z,30
2016-10-17T12:09:05.720Z,30
2016-10-17T12:10:05.855Z,30
2016-10-17T12:11:05.771Z,30
2016-10-17T12:12:06.214Z,30
2016-10-17T12:13:05.921Z,30
2016-10-17T12:14:06.277Z,30
2016-10-17T12:15:05.969Z,30
2016-10-17T12:16:06.203Z,30
2016-10-17T12:17:05.909Z,30
2016-10-17T12:18:06.235Z,30
2016-10-17T12:19:05.964Z,30
2016-10-17T12:20:05.971Z,30
2016-10-17T12:21:06.121Z,30
2016-10-17T12:22:06.362Z,30
2016-10-17T12:23:06.039Z,30
2016-10-17T12:24:06.197Z,30
2016-10-17T12:25:06.200Z,30
2016-10-17T12:26:06.108Z,30
2016-10-17T12:27:06.188Z,30
2016-10-17T12:28:06.171Z,35
2016-10-17T12:29:06.180Z,35
2016-10-17T12:30:06.202Z,35
2016-10-17T12:31:06.209Z,30
2016-10-17T12:32:06.259Z,30
2016-10-17T12:33:06.264Z,30
2016-10-17T12:34:06.287Z,30
2016-10-17T12:35:06.315Z,30
2016-10-17T12:36:06.492Z,30
2016-10-17T12:37:06.349Z,30
2016-10-17T12:38:06.504Z,30
2016-10-17T12:39:06.517Z,30
2016-10-17T12:40:06.430Z,30
2016-10-17T12:41:06.448Z,30
2016-10-17T12:42:06.485Z,30
2016-10-17T12:43:06.488Z,30
2016-10-17T12:44:06.642Z,25
2016-10-17T12:45:06.650Z,25
2016-10-17T12:46:06.676Z,25
2016-10-17T12:47:06.586Z,25
2016-10-17T12:48:06.606Z,25
2016-10-17T12:49:06.640Z,25
2016-10-17T12:50:07.165Z,25
2016-10-17T12:51:06.676Z,25
2016-10-17T12:52:06.703Z,25
2016-10-17T12:53:06.722Z,25
2016-10-17T12:54:06.750Z,25
2016-10-17T12:55:06.777Z,25
2016-10-17T12:56:06.802Z,25
2016-10-17T12:57:06.818Z,25
2016-10-17T12:58:06.854Z,25
2016-10-17T12:59:06.864Z,25
2016-10-17T13:00:06.993Z,25
2016-10-17T13:01:07.025Z,20
2016-10-17T13:02:07.049Z,20
2016-10-17T13:03:07.084Z,20
2016-10-17T13:04:07.266Z,20
2016-10-17T13:05:07.056Z,20
2016-10-17T13:06:07.052Z,20
2016-10-17T13:07:07.042Z,20
2016-10-17T13:08:07.187Z,20
2016-10-17T13:09:07.093Z,20
2016-10-17T13:10:07.547Z,20
2016-10-17T13:11:07.251Z,20
2016-10-17T13:12:07.658Z,20
2016-10-17T13:13:07.643Z,20
2016-10-17T13:14:07.211Z,20
2016-10-17T13:15:07.223Z,25
2016-10-17T13:16:07.381Z,25
2016-10-17T13:17:07.320Z,20
2016-10-17T13:18:07.321Z,20
2016-10-17T13:19:07.634Z,20
2016-10-17T13:20:07.474Z,20
2016-10-17T13:21:07.684Z,20
2016-10-17T13:22:07.387Z,20
2016-10-17T13:23:07.626Z,20
2016-10-17T13:24:07.632Z,20
2016-10-17T13:25:07.570Z,20
2016-10-17T13:26:07.506Z,20
2016-10-17T13:27:07.504Z,20
2016-10-17T13:28:07.690Z,20
2016-10-17T13:29:07.676Z,20
2016-10-17T13:30:07.647Z,20
2016-10-17T13:31:07.596Z,20
2016-10-17T13:32:07.627Z,20
2016-10-17T13:33:07.647Z,20
2016-10-17T13:34:07.693Z,20
2016-10-17T13:35:07.719Z,20
2016-10-17T13:36:07.728Z,20
2016-10-17T13:37:07.743Z,20
2016-10-17T13:38:07.871Z,20
2016-10-17T13:39:07.786Z,20
2016-10-17T13:40:07.944Z,20
2016-10-17T13:41:07.915Z,20
2016-10-17T13:42:07.970Z,20
2016-10-17T13:43:07.889Z,20
2016-10-17T13:44:08.221Z,20
2016-10-17T13:45:07.926Z,20
2016-10-17T13:46:07.968Z,20
2016-10-17T13:47:07.981Z,15
2016-10-17T13:48:07.999Z,15
2016-10-17T13:49:08.025Z,15
2016-10-17T13:50:08.123Z,15
2016-10-17T13:51:08.157Z,15
2016-10-17T13:52:08.128Z,15
2016-10-17T13:53:08.620Z,20
2016-10-17T13:54:08.253Z,20
2016-10-17T13:55:08.166Z,20
2016-10-17T13:56:08.287Z,20
2016-10-17T13:57:08.200Z,20
2016-10-17T13:58:08.246Z,20
2016-10-17T13:59:08.257Z,20
2016-10-17T14:00:08.283Z,20
2016-10-17T14:01:08.468Z,20
2016-10-17T14:02:08.323Z,20
2016-10-17T14:03:08.350Z,20
2016-10-17T14:04:08.488Z,20
2016-10-17T14:05:08.500Z,20
2016-10-17T14:06:08.412Z,20
2016-10-17T14:07:08.548Z,20
2016-10-17T14:08:08.464Z,20
2016-10-17T14:09:08.522Z,20
2016-10-17T14:10:08.617Z,20
2016-10-17T14:11:08.651Z,20
2016-10-17T14:12:08.664Z,20
2016-10-17T14:13:08.696Z,20
2016-10-17T14:14:08.601Z,20
2016-10-17T14:15:08.828Z,20
2016-10-17T14:16:08.748Z,20
2016-10-17T14:17:08.801Z,15
2016-10-17T14:18:09.018Z,15
2016-10-17T14:19:08.827Z,15
2016-10-17T14:20:08.734Z,15
2016-10-17T14:21:08.850Z,15
2016-10-17T14:22:08.782Z,15
2016-10-17T14:23:08.798Z,15
2016-10-17T14:24:08.838Z,15
2016-10-17T14:25:08.963Z,15
2016-10-17T14:26:08.877Z,15
2016-10-17T14:27:08.932Z,15
2016-10-17T14:28:09.088Z,15
2016-10-17T14:29:08.940Z,15
2016-10-17T14:30:08.984Z,15
2016-10-17T14:31:08.999Z,15
2016-10-17T14:32:09.197Z,15